createdAt,value
2019-02-06T00:01:00.185Z,19.23
2019-02-06T00:03:28.547Z,18.27
2019-02-06T00:05:56.903Z,17.30
2019-02-06T00:08:25.315Z,17.77
2019-02-06T00:10:53.667Z,16.73
2019-02-06T00:13:22.084Z,18.73
2019-02-06T00:15:50.999Z,16.83
2019-02-06T00:18:19.447Z,17.27
2019-02-06T00:20:47.793Z,16.83
2019-02-06T00:23:16.173Z,16.97
2019-02-06T00:25:44.553Z,16.73
2019-02-06T00:28:12.959Z,17.90
2019-02-06T00:30:41.383Z,17.13
2019-02-06T00:33:10.072Z,16.53
2019-02-06T00:35:38.447Z,15.83
2019-02-06T00:38:06.792Z,15.03
2019-02-06T00:40:35.189Z,17.27
2019-02-06T00:43:03.541Z,16.80
2019-02-06T00:45:31.925Z,16.43
2019-02-06T00:48:00.699Z,16.50
2019-02-06T00:50:29.137Z,16.07
2019-02-06T00:52:57.504Z,13.43
2019-02-06T00:55:25.881Z,15.80
2019-02-06T00:57:54.265Z,15.03
2019-02-06T01:00:23.186Z,15.87
2019-02-06T01:02:52.484Z,15.33
2019-02-06T01:05:21.033Z,15.00
2019-02-06T01:07:49.445Z,15.40
2019-02-06T01:10:20.738Z,15.90
2019-02-06T01:12:49.117Z,18.17
2019-02-06T01:15:18.506Z,16.80
2019-02-06T01:17:46.877Z,15.40
2019-02-06T01:20:17.075Z,15.80
2019-02-06T01:22:45.465Z,14.00
2019-02-06T01:25:16.786Z,15.57
2019-02-06T01:27:45.279Z,14.87
2019-02-06T01:30:20.925Z,14.27
2019-02-06T01:32:49.295Z,15.93
2019-02-06T01:35:17.987Z,15.10
2019-02-06T01:37:46.383Z,16.60
2019-02-06T01:40:17.397Z,15.17
2019-02-06T01:42:45.807Z,15.80
2019-02-06T01:45:17.072Z,16.63
2019-02-06T01:47:45.551Z,15.47
2019-02-06T01:50:15.408Z,16.77
2019-02-06T01:52:43.775Z,19.50
2019-02-06T01:55:15.359Z,17.47
2019-02-06T01:57:43.719Z,15.83
2019-02-06T02:00:18.045Z,18.43
2019-02-06T02:02:46.435Z,16.93
2019-02-06T02:05:17.243Z,17.00
2019-02-06T02:07:45.645Z,20.33
2019-02-06T02:10:14.015Z,19.30
2019-02-06T02:12:42.377Z,19.27
2019-02-06T02:15:13.806Z,17.60
2019-02-06T02:17:42.170Z,17.73
2019-02-06T02:20:15.865Z,20.20
2019-02-06T02:22:44.223Z,18.93
2019-02-06T02:25:12.790Z,16.67
2019-02-06T02:27:41.154Z,20.07
2019-02-06T02:30:18.850Z,18.33
2019-02-06T02:32:47.532Z,18.67
2019-02-06T02:35:15.886Z,20.33
2019-02-06T02:37:44.342Z,18.97
2019-02-06T02:40:12.697Z,19.23
2019-02-06T02:42:41.079Z,20.20
2019-02-06T02:45:14.810Z,19.20
2019-02-06T02:47:43.509Z,19.27
2019-02-06T02:50:12.012Z,19.03
2019-02-06T02:52:40.391Z,18.63
2019-02-06T02:55:10.784Z,21.60
2019-02-06T02:57:39.193Z,19.73
2019-02-06T03:00:12.683Z,23.43
2019-02-06T03:02:52.475Z,20.23
2019-02-06T03:05:22.009Z,21.20
2019-02-06T03:07:50.337Z,24.00
2019-02-06T03:10:18.696Z,20.57
2019-02-06T03:12:47.096Z,19.00
2019-02-06T03:15:15.457Z,21.60
2019-02-06T03:17:43.836Z,20.40
2019-02-06T03:20:13.057Z,18.10
2019-02-06T03:22:41.436Z,20.77
2019-02-06T03:25:14.287Z,19.73
2019-02-06T03:27:42.687Z,19.73
2019-02-06T03:30:16.301Z,20.27
2019-02-06T03:32:44.725Z,18.07
2019-02-06T03:35:13.257Z,21.50
2019-02-06T03:37:41.641Z,19.07
2019-02-06T03:40:15.093Z,20.53
2019-02-06T03:42:43.468Z,19.33
2019-02-06T03:45:12.882Z,21.40
2019-02-06T03:47:41.249Z,18.20
2019-02-06T03:50:20.249Z,19.43
2019-02-06T03:52:48.634Z,18.27
2019-02-06T03:55:17.012Z,19.47
2019-02-06T03:57:45.372Z,21.83
2019-02-06T04:00:18.320Z,19.70
2019-02-06T04:02:46.685Z,20.97
2019-02-06T04:05:15.153Z,19.20
2019-02-06T04:07:43.522Z,22.07
2019-02-06T04:10:19.029Z,21.50
2019-02-06T04:12:47.523Z,19.70
2019-02-06T04:15:16.732Z,20.67
2019-02-06T04:17:45.093Z,22.00
2019-02-06T04:20:17.231Z,20.87
2019-02-06T04:22:45.612Z,18.47
2019-02-06T04:25:16.946Z,21.37
2019-02-06T04:27:45.334Z,18.47
2019-02-06T04:30:18.452Z,19.93
2019-02-06T04:32:46.899Z,19.00
2019-02-06T04:35:15.716Z,21.37
2019-02-06T04:37:44.105Z,19.20
2019-02-06T04:40:16.102Z,18.97
2019-02-06T04:42:44.479Z,20.37
2019-02-06T04:45:17.720Z,19.87
2019-02-06T04:47:46.085Z,20.00
2019-02-06T04:50:15.486Z,20.67
2019-02-06T04:52:43.964Z,19.33
2019-02-06T04:55:14.677Z,19.50
2019-02-06T04:57:43.070Z,20.27
2019-02-06T05:00:25.712Z,22.30
2019-02-06T05:02:54.082Z,21.37
2019-02-06T05:05:22.456Z,20.03
2019-02-06T05:07:50.821Z,21.23
2019-02-06T05:10:19.236Z,20.77
2019-02-06T05:12:47.890Z,24.00
2019-02-06T05:15:16.924Z,19.90
2019-02-06T05:17:45.342Z,20.83
2019-02-06T05:20:35.409Z,20.03
2019-02-06T05:23:03.870Z,19.23
2019-02-06T05:25:32.237Z,20.27
2019-02-06T05:28:00.540Z,18.87
2019-02-06T05:30:28.928Z,18.50
2019-02-06T05:32:57.312Z,19.93
2019-02-06T05:35:25.822Z,19.10
2019-02-06T05:37:54.184Z,20.47
2019-02-06T05:40:22.991Z,19.77
2019-02-06T05:42:52.781Z,20.10
2019-02-06T05:45:21.372Z,20.20
2019-02-06T05:47:49.747Z,19.13
2019-02-06T05:50:19.763Z,20.97
2019-02-06T05:52:48.164Z,19.43
2019-02-06T05:55:17.509Z,20.93
2019-02-06T05:57:46.171Z,21.03
2019-02-06T06:00:24.877Z,21.33
2019-02-06T06:02:53.272Z,20.70
2019-02-06T06:05:21.649Z,21.17
2019-02-06T06:07:50.027Z,20.50
2019-02-06T06:10:19.249Z,21.17
2019-02-06T06:12:47.963Z,19.73
2019-02-06T06:15:18.841Z,25.10
2019-02-06T06:17:47.317Z,20.80
2019-02-06T06:20:17.842Z,21.20
2019-02-06T06:22:46.243Z,21.10
2019-02-06T06:25:17.470Z,22.57
2019-02-06T06:27:46.169Z,19.20
2019-02-06T06:30:16.666Z,20.40
2019-02-06T06:32:45.075Z,20.70
2019-02-06T06:35:14.114Z,21.17
2019-02-06T06:37:42.482Z,19.60
2019-02-06T06:40:20.226Z,24.03
2019-02-06T06:42:48.813Z,24.20
2019-02-06T06:45:23.380Z,23.07
2019-02-06T06:47:51.755Z,21.80
2019-02-06T06:50:22.063Z,19.77
2019-02-06T06:52:50.439Z,20.10
2019-02-06T06:55:18.835Z,21.43
2019-02-06T06:57:47.217Z,22.80
2019-02-06T07:00:21.737Z,18.83
2019-02-06T07:02:50.094Z,22.73
2019-02-06T07:05:18.430Z,23.30
2019-02-06T07:07:46.811Z,19.80
2019-02-06T07:10:16.531Z,20.03
2019-02-06T07:12:44.906Z,21.77
2019-02-06T07:15:15.837Z,20.33
2019-02-06T07:17:44.213Z,20.50
2019-02-06T07:20:15.027Z,20.53
2019-02-06T07:22:43.453Z,22.50
2019-02-06T07:25:14.111Z,23.20
2019-02-06T07:27:42.479Z,24.10
2019-02-06T07:30:19.861Z,22.83
2019-02-06T07:32:48.251Z,23.53
2019-02-06T07:35:16.676Z,20.00
2019-02-06T07:37:45.094Z,24.73
2019-02-06T07:40:15.127Z,23.07
2019-02-06T07:42:43.519Z,22.60
2019-02-06T07:45:13.976Z,24.10
2019-02-06T07:47:42.377Z,23.93
2019-02-06T07:50:16.433Z,23.30
2019-02-06T07:52:44.796Z,21.87
2019-02-06T07:55:13.479Z,22.27
2019-02-06T07:57:41.844Z,21.30
2019-02-06T08:00:10.221Z,18.83
2019-02-06T08:02:38.601Z,19.70
2019-02-06T08:05:17.953Z,14.53
2019-02-06T08:07:46.355Z,13.83
2019-02-06T08:10:18.242Z,12.30
2019-02-06T08:12:46.633Z,12.13
2019-02-06T08:15:17.192Z,12.73
2019-02-06T08:17:45.543Z,13.17
2019-02-06T08:20:21.367Z,13.57
2019-02-06T08:22:49.726Z,17.10
2019-02-06T08:25:19.556Z,13.43
2019-02-06T08:27:48.009Z,15.67
2019-02-06T08:30:28.700Z,13.80
2019-02-06T08:32:57.085Z,13.07
2019-02-06T08:35:25.463Z,13.80
2019-02-06T08:37:53.868Z,13.33
2019-02-06T08:40:27.489Z,13.83
2019-02-06T08:42:55.887Z,13.73
2019-02-06T08:45:24.266Z,12.33
2019-02-06T08:47:52.648Z,13.33
2019-02-06T08:50:22.162Z,13.77
2019-02-06T08:52:50.942Z,12.03
2019-02-06T08:55:25.358Z,12.63
2019-02-06T08:57:53.775Z,12.90
2019-02-06T09:00:27.102Z,13.40
2019-02-06T09:02:55.496Z,13.77
2019-02-06T09:05:23.886Z,13.83
2019-02-06T09:07:55.050Z,13.90
2019-02-06T09:10:25.404Z,14.40
2019-02-06T09:12:54.522Z,13.33
2019-02-06T09:15:22.814Z,13.93
2019-02-06T09:17:51.180Z,13.80
2019-02-06T09:20:25.234Z,14.07
2019-02-06T09:22:53.674Z,12.40
2019-02-06T09:25:23.815Z,15.07
2019-02-06T09:27:52.314Z,15.43
2019-02-06T09:30:25.791Z,15.67
2019-02-06T09:32:54.804Z,14.60
2019-02-06T09:35:23.516Z,13.47
2019-02-06T09:37:51.921Z,16.00
2019-02-06T09:40:22.845Z,13.27
2019-02-06T09:42:51.288Z,15.03
2019-02-06T09:45:19.687Z,13.37
2019-02-06T09:47:48.121Z,15.40
2019-02-06T09:50:19.530Z,14.47
2019-02-06T09:52:47.906Z,14.37
2019-02-06T09:55:16.270Z,15.97
2019-02-06T09:57:44.654Z,13.47
2019-02-06T10:00:16.302Z,14.07
2019-02-06T10:02:44.701Z,15.03
2019-02-06T10:05:13.078Z,15.33
2019-02-06T10:07:41.753Z,14.33
2019-02-06T10:10:15.573Z,14.33
2019-02-06T10:12:43.977Z,14.13
2019-02-06T10:15:23.965Z,12.80
2019-02-06T10:17:53.191Z,15.23
2019-02-06T10:20:27.200Z,14.53
2019-02-06T10:22:55.573Z,14.20
2019-02-06T10:25:24.034Z,16.23
2019-02-06T10:27:52.404Z,15.27
2019-02-06T10:30:35.376Z,13.87
2019-02-06T10:33:03.786Z,13.63
2019-02-06T10:35:32.153Z,14.10
2019-02-06T10:38:00.539Z,14.63
2019-02-06T10:40:28.928Z,13.83
2019-02-06T10:42:57.301Z,14.63
2019-02-06T10:45:25.677Z,13.67
2019-02-06T10:47:54.463Z,13.37
2019-02-06T10:50:25.211Z,12.83
2019-02-06T10:52:53.583Z,13.10
2019-02-06T10:55:22.007Z,13.23
2019-02-06T10:57:50.452Z,12.87
2019-02-06T11:00:29.832Z,14.53
2019-02-06T11:02:57.778Z,12.47
2019-02-06T11:05:26.181Z,12.97
2019-02-06T11:07:54.571Z,12.90
2019-02-06T11:10:27.373Z,12.87
2019-02-06T11:12:55.751Z,14.00
2019-02-06T11:15:24.117Z,13.40
2019-02-06T11:17:52.875Z,13.60
2019-02-06T11:20:24.145Z,12.53
2019-02-06T11:22:52.539Z,14.43
2019-02-06T11:25:20.935Z,13.17
2019-02-06T11:27:49.320Z,13.23
2019-02-06T11:30:20.597Z,11.43
2019-02-06T11:32:49.279Z,12.53
2019-02-06T11:35:17.659Z,13.53
2019-02-06T11:37:46.052Z,12.03
2019-02-06T11:40:16.776Z,12.77
2019-02-06T11:42:45.148Z,14.20
2019-02-06T11:45:25.235Z,14.07
2019-02-06T11:47:53.638Z,13.23
2019-02-06T11:50:29.994Z,12.13
2019-02-06T11:52:58.433Z,12.17
2019-02-06T11:55:29.133Z,13.37
2019-02-06T11:57:57.520Z,11.67
2019-02-06T12:00:34.184Z,11.67
2019-02-06T12:03:02.569Z,13.53
2019-02-06T12:05:30.952Z,11.50
2019-02-06T12:08:00.972Z,12.70
2019-02-06T12:10:29.351Z,12.33
2019-02-06T12:12:57.722Z,11.63
2019-02-06T12:15:26.432Z,13.23
2019-02-06T12:17:54.800Z,13.23
2019-02-06T12:20:24.434Z,13.23
2019-02-06T12:22:52.794Z,12.80
2019-02-06T12:25:21.204Z,12.13
2019-02-06T12:27:51.521Z,13.17
2019-02-06T12:30:26.179Z,15.00
2019-02-06T12:32:54.532Z,15.43
2019-02-06T12:35:22.904Z,12.80
2019-02-06T12:37:51.290Z,13.10
2019-02-06T12:40:21.865Z,14.03
2019-02-06T12:42:50.216Z,14.00
2019-02-06T12:45:23.760Z,13.63
2019-02-06T12:47:52.597Z,13.93
2019-02-06T12:50:24.787Z,13.90
2019-02-06T12:52:53.182Z,14.07
2019-02-06T12:55:39.013Z,14.47
2019-02-06T12:58:08.352Z,12.13
2019-02-06T13:00:44.101Z,14.50
2019-02-06T13:03:12.510Z,10.63
2019-02-06T13:05:40.867Z,13.60
2019-02-06T13:08:09.292Z,13.07
2019-02-06T13:10:37.649Z,14.23
2019-02-06T13:13:06.309Z,13.30
2019-02-06T13:15:34.989Z,13.57
2019-02-06T13:18:03.392Z,11.57
2019-02-06T13:20:36.311Z,13.60
2019-02-06T13:23:05.882Z,13.20
2019-02-06T13:25:34.251Z,13.17
2019-02-06T13:28:02.641Z,12.13
2019-02-06T13:30:36.400Z,14.70
2019-02-06T13:33:06.403Z,15.30
2019-02-06T13:35:34.797Z,13.40
2019-02-06T13:38:03.160Z,14.53
2019-02-06T13:40:31.567Z,13.80
2019-02-06T13:42:59.926Z,12.67
2019-02-06T13:45:34.770Z,13.67
2019-02-06T13:48:03.131Z,13.67
2019-02-06T13:50:31.537Z,14.77
2019-02-06T13:52:59.926Z,15.63
2019-02-06T13:55:28.302Z,14.40
2019-02-06T13:57:56.612Z,13.87
2019-02-06T14:00:33.069Z,13.80
2019-02-06T14:03:01.506Z,14.43
2019-02-06T14:05:31.828Z,14.53
2019-02-06T14:08:02.887Z,15.03
2019-02-06T14:10:32.110Z,15.03
2019-02-06T14:13:00.958Z,13.40
2019-02-06T14:15:32.650Z,15.30
2019-02-06T14:18:01.031Z,14.43
2019-02-06T14:20:30.012Z,13.50
2019-02-06T14:23:01.574Z,12.87
2019-02-06T14:25:45.405Z,14.10
2019-02-06T14:28:25.817Z,13.90
2019-02-06T14:31:14.186Z,14.73
2019-02-06T14:33:54.897Z,13.77
2019-02-06T14:36:45.492Z,14.30
2019-02-06T14:39:29.171Z,13.83
2019-02-06T14:42:19.994Z,14.07
2019-02-06T14:45:06.444Z,13.97
2019-02-06T14:47:55.960Z,14.90
2019-02-06T14:51:00.419Z,15.23
2019-02-06T14:53:54.329Z,15.10
2019-02-06T14:56:34.841Z,15.63
2019-02-06T14:59:12.328Z,15.47
2019-02-06T15:01:58.530Z,16.20
2019-02-06T15:04:38.983Z,16.93
2019-02-06T15:07:28.383Z,16.87
2019-02-06T15:10:11.706Z,16.87
2019-02-06T15:12:55.274Z,19.33
2019-02-06T15:15:43.456Z,16.20
2019-02-06T15:18:15.082Z,16.10
2019-02-06T15:20:55.910Z,16.50
2019-02-06T15:23:48.689Z,15.43
2019-02-06T15:26:20.363Z,15.37
2019-02-06T15:29:03.486Z,14.77
2019-02-06T15:32:06.906Z,14.93
2019-02-06T15:34:52.863Z,15.63
2019-02-06T15:37:32.709Z,14.87
2019-02-06T15:40:27.023Z,15.03
2019-02-06T15:43:16.513Z,14.90
2019-02-06T15:45:48.118Z,15.70
2019-02-06T15:48:34.531Z,14.80
2019-02-06T15:51:32.058Z,14.03
2019-02-06T15:54:06.515Z,14.67
2019-02-06T15:56:54.858Z,16.20
2019-02-06T15:59:48.981Z,15.37
2019-02-06T16:02:26.399Z,15.60
2019-02-06T16:05:08.340Z,16.63
2019-02-06T16:07:51.885Z,14.97
2019-02-06T16:10:50.528Z,14.80
2019-02-06T16:13:46.291Z,15.00
2019-02-06T16:16:38.177Z,15.53
2019-02-06T16:19:28.100Z,15.27
2019-02-06T16:22:23.665Z,14.67
2019-02-06T16:25:01.008Z,15.03
2019-02-06T16:27:44.678Z,15.83
2019-02-06T16:30:30.586Z,16.10
2019-02-06T16:33:14.307Z,14.17
2019-02-06T16:35:51.280Z,14.67
2019-02-06T16:38:41.213Z,15.80
2019-02-06T16:41:24.696Z,15.37
2019-02-06T16:43:56.325Z,14.20
2019-02-06T16:46:36.563Z,13.90
2019-02-06T16:49:14.487Z,13.47
2019-02-06T16:52:05.294Z,14.77
2019-02-06T16:54:45.626Z,16.33
2019-02-06T16:57:17.266Z,14.47
2019-02-06T16:59:57.611Z,15.20
2019-02-06T17:02:35.106Z,14.90
2019-02-06T17:05:30.916Z,16.27
2019-02-06T17:08:14.490Z,16.10
2019-02-06T17:11:05.439Z,16.73
2019-02-06T17:13:39.607Z,16.00
2019-02-06T17:16:23.203Z,15.03
2019-02-06T17:18:57.387Z,15.43
2019-02-06T17:21:31.488Z,15.13
2019-02-06T17:24:14.615Z,15.27
2019-02-06T17:26:51.552Z,14.83
2019-02-06T17:29:23.215Z,14.27
2019-02-06T17:32:06.596Z,14.63
2019-02-06T17:34:38.252Z,16.57
2019-02-06T17:37:21.191Z,15.90
2019-02-06T17:39:55.555Z,14.40
2019-02-06T17:42:29.803Z,14.73
2019-02-06T17:45:19.216Z,16.87
2019-02-06T17:47:56.095Z,18.03
2019-02-06T17:50:44.228Z,17.00
2019-02-06T17:53:15.859Z,16.63
2019-02-06T17:55:44.262Z,15.43
2019-02-06T17:58:12.638Z,14.23
2019-02-06T18:00:52.994Z,15.07
2019-02-06T18:03:21.411Z,14.50
2019-02-06T18:05:50.258Z,16.20
2019-02-06T18:08:18.678Z,15.97
2019-02-06T18:10:47.073Z,16.10
2019-02-06T18:13:15.936Z,15.83
2019-02-06T18:15:44.324Z,16.37
2019-02-06T18:18:12.713Z,15.50
2019-02-06T18:20:41.410Z,16.03
2019-02-06T18:23:09.794Z,17.10
2019-02-06T18:25:38.177Z,16.37
2019-02-06T18:28:06.588Z,16.83
2019-02-06T18:30:34.952Z,15.03
2019-02-06T18:33:03.354Z,13.77
2019-02-06T18:35:31.751Z,14.27
2019-02-06T18:38:00.151Z,15.03
2019-02-06T18:40:28.826Z,13.20
2019-02-06T18:42:57.448Z,14.37
2019-02-06T18:45:27.828Z,13.87
2019-02-06T18:48:01.642Z,13.10
2019-02-06T18:50:34.376Z,12.60
2019-02-06T18:53:03.155Z,12.40
2019-02-06T18:55:31.968Z,12.10
2019-02-06T18:58:00.338Z,12.13
2019-02-06T19:00:32.403Z,11.40
2019-02-06T19:03:03.829Z,13.17
2019-02-06T19:05:35.327Z,12.17
2019-02-06T19:08:03.701Z,12.50
2019-02-06T19:10:32.085Z,14.37
2019-02-06T19:13:00.482Z,13.90
2019-02-06T19:15:29.165Z,12.73
2019-02-06T19:17:57.604Z,12.77
2019-02-06T19:20:26.010Z,12.58
2019-02-06T19:22:54.407Z,12.20
2019-02-06T19:25:23.965Z,13.60
2019-02-06T19:27:52.374Z,12.67
2019-02-06T19:30:26.011Z,13.20
2019-02-06T19:32:54.604Z,14.20
2019-02-06T19:35:23.053Z,12.25
2019-02-06T19:37:51.462Z,14.37
2019-02-06T19:40:20.036Z,13.07
2019-02-06T19:42:58.809Z,15.37
2019-02-06T19:45:21.557Z,14.13
2019-02-06T19:47:49.968Z,15.00
2019-02-06T19:50:27.306Z,14.80
2019-02-06T19:52:55.701Z,15.33
2019-02-06T19:55:24.089Z,15.63
2019-02-06T19:57:52.496Z,13.05
2019-02-06T20:00:26.133Z,14.83
2019-02-06T20:02:54.618Z,15.70
2019-02-06T20:05:23.301Z,13.87
2019-02-06T20:07:51.855Z,14.70
2019-02-06T20:10:23.504Z,14.27
2019-02-06T20:12:51.939Z,14.93
2019-02-06T20:15:20.825Z,15.07
2019-02-06T20:17:49.199Z,16.27
2019-02-06T20:20:20.401Z,13.53
2019-02-06T20:22:49.103Z,16.00
2019-02-06T20:25:17.520Z,16.07
2019-02-06T20:27:45.986Z,14.60
2019-02-06T20:30:20.166Z,13.63
2019-02-06T20:32:48.580Z,14.60
2019-02-06T20:35:17.197Z,14.90
2019-02-06T20:37:45.668Z,13.97
2019-02-06T20:40:26.708Z,15.77
2019-02-06T20:42:55.130Z,14.73
2019-02-06T20:45:23.489Z,16.17
2019-02-06T20:47:51.892Z,16.43
2019-02-06T20:50:28.100Z,14.80
2019-02-06T20:52:56.797Z,14.18
2019-02-06T20:55:25.243Z,13.17
2019-02-06T20:57:53.670Z,13.72
2019-02-06T21:00:24.865Z,14.07
2019-02-06T21:02:53.266Z,14.30
2019-02-06T21:05:21.707Z,13.63
2019-02-06T21:07:50.107Z,13.83
2019-02-06T21:10:23.578Z,14.43
2019-02-06T21:13:12.873Z,13.85
2019-02-06T21:15:41.264Z,15.17
2019-02-06T21:18:09.670Z,13.43
2019-02-06T21:20:38.068Z,15.47
2019-02-06T21:23:06.461Z,13.40
2019-02-06T21:25:34.854Z,12.70
2019-02-06T21:28:03.280Z,13.43
2019-02-06T21:30:39.934Z,13.55
2019-02-06T21:33:08.317Z,12.73
2019-02-06T21:35:36.785Z,14.17
2019-02-06T21:38:05.164Z,14.37
2019-02-06T21:40:37.348Z,14.20
2019-02-06T21:43:06.762Z,12.70
2019-02-06T21:45:35.227Z,13.08
2019-02-06T21:48:04.003Z,15.23
2019-02-06T21:50:32.378Z,24.00
2019-02-06T21:53:00.808Z,15.85
2019-02-06T21:55:29.316Z,12.07
2019-02-06T21:57:57.797Z,12.33
2019-02-06T22:00:35.270Z,13.67
2019-02-06T22:03:03.644Z,15.83
2019-02-06T22:05:32.550Z,14.47
2019-02-06T22:08:00.964Z,13.90
2019-02-06T22:10:29.337Z,12.82
2019-02-06T22:12:57.754Z,11.85
2019-02-06T22:15:28.374Z,13.60
2019-02-06T22:17:56.764Z,15.03
2019-02-06T22:20:25.756Z,12.50
2019-02-06T22:22:54.193Z,16.50
2019-02-06T22:25:22.571Z,14.23
2019-02-06T22:27:52.952Z,13.58
2019-02-06T22:30:27.118Z,13.95
2019-02-06T22:32:55.503Z,13.10
2019-02-06T22:35:24.283Z,13.97
2019-02-06T22:37:52.712Z,13.25
2019-02-06T22:40:23.593Z,12.90
2019-02-06T22:42:52.039Z,12.43
2019-02-06T22:45:28.178Z,13.93
2019-02-06T22:47:56.647Z,13.60
2019-02-06T22:50:27.740Z,14.63
2019-02-06T22:52:56.106Z,14.57
2019-02-06T22:55:24.557Z,15.40
2019-02-06T22:57:52.961Z,12.45
2019-02-06T23:00:44.488Z,14.03
2019-02-06T23:03:13.027Z,13.08
2019-02-06T23:05:41.466Z,12.13
2019-02-06T23:08:09.988Z,13.32
2019-02-06T23:10:38.349Z,13.18
2019-02-06T23:13:07.614Z,13.00
2019-02-06T23:15:36.580Z,12.95
2019-02-06T23:18:05.402Z,12.95
2019-02-06T23:20:33.778Z,13.22
2019-02-06T23:23:02.178Z,14.98
2019-02-06T23:25:30.588Z,13.88
2019-02-06T23:27:58.984Z,13.70
2019-02-06T23:30:27.697Z,12.65
2019-02-06T23:32:56.095Z,12.68
2019-02-06T23:35:24.478Z,13.62
2019-02-06T23:37:52.936Z,13.60
2019-02-06T23:40:21.277Z,13.72
2019-02-06T23:42:49.668Z,14.40
2019-02-06T23:45:18.065Z,13.05
2019-02-06T23:47:46.437Z,13.78
2019-02-06T23:50:17.854Z,14.93
2019-02-06T23:52:46.246Z,14.83
2019-02-06T23:55:14.649Z,13.95
2019-02-06T23:57:43.114Z,13.15
